sensor_id;sensor_type;location;lat;lon;timestamp;P1;durP1;ratioP1;P2;durP2;ratioP2
55776;SDS011;54079;44.540;18.784;2022-12-20T00:00:55;101.22;;;51.90;;
55776;SDS011;54079;44.540;18.784;2022-12-20T00:03:21;97.32;;;51.25;;
55776;SDS011;54079;44.540;18.784;2022-12-20T00:05:47;93.97;;;50.53;;
55776;SDS011;54079;44.540;18.784;2022-12-20T00:08:13;96.28;;;51.17;;
55776;SDS011;54079;44.540;18.784;2022-12-20T00:10:43;89.07;;;49.10;;
55776;SDS011;54079;44.540;18.784;2022-12-20T00:13:10;91.68;;;49.90;;
55776;SDS011;54079;44.540;18.784;2022-12-20T00:15:37;95.65;;;51.17;;
55776;SDS011;54079;44.540;18.784;2022-12-20T00:18:03;103.35;;;54.08;;
55776;SDS011;54079;44.540;18.784;2022-12-20T00:20:29;109.47;;;54.92;;
55776;SDS011;54079;44.540;18.784;2022-12-20T00:22:55;119.32;;;58.17;;
55776;SDS011;54079;44.540;18.784;2022-12-20T00:25:21;108.97;;;54.22;;
55776;SDS011;54079;44.540;18.784;2022-12-20T00:27:47;109.53;;;56.55;;
55776;SDS011;54079;44.540;18.784;2022-12-20T00:30:14;125.45;;;67.30;;
55776;SDS011;54079;44.540;18.784;2022-12-20T00:32:40;130.82;;;69.03;;
55776;SDS011;54079;44.540;18.784;2022-12-20T00:35:07;131.45;;;71.28;;
55776;SDS011;54079;44.540;18.784;2022-12-20T00:37:33;124.50;;;68.85;;
55776;SDS011;54079;44.540;18.784;2022-12-20T00:39:59;112.93;;;58.70;;
55776;SDS011;54079;44.540;18.784;2022-12-20T00:42:25;123.68;;;59.35;;
55776;SDS011;54079;44.540;18.784;2022-12-20T00:44:51;111.80;;;57.55;;
55776;SDS011;54079;44.540;18.784;2022-12-20T00:47:17;112.78;;;55.38;;
55776;SDS011;54079;44.540;18.784;2022-12-20T00:49:43;109.88;;;52.40;;
55776;SDS011;54079;44.540;18.784;2022-12-20T00:52:09;98.05;;;51.22;;
55776;SDS011;54079;44.540;18.784;2022-12-20T00:54:34;97.75;;;50.40;;
55776;SDS011;54079;44.540;18.784;2022-12-20T00:57:00;102.75;;;55.45;;
55776;SDS011;54079;44.540;18.784;2022-12-20T00:59:26;113.15;;;55.03;;
55776;SDS011;54079;44.540;18.784;2022-12-20T01:01:52;107.35;;;54.42;;
55776;SDS011;54079;44.540;18.784;2022-12-20T01:04:18;94.95;;;48.67;;
55776;SDS011;54079;44.540;18.784;2022-12-20T01:06:44;104.97;;;51.53;;
55776;SDS011;54079;44.540;18.784;2022-12-20T01:09:10;105.70;;;53.67;;
55776;SDS011;54079;44.540;18.784;2022-12-20T01:11:36;99.45;;;51.50;;
55776;SDS011;54079;44.540;18.784;2022-12-20T01:14:05;101.50;;;50.67;;
55776;SDS011;54079;44.540;18.784;2022-12-20T01:16:35;115.35;;;55.33;;
55776;SDS011;54079;44.540;18.784;2022-12-20T01:19:03;88.10;;;43.80;;
55776;SDS011;54079;44.540;18.784;2022-12-20T01:21:30;99.43;;;52.10;;
55776;SDS011;54079;44.540;18.784;2022-12-20T01:23:56;92.78;;;46.25;;
55776;SDS011;54079;44.540;18.784;2022-12-20T01:26:25;92.07;;;46.28;;
55776;SDS011;54079;44.540;18.784;2022-12-20T01:28:54;92.97;;;46.03;;
55776;SDS011;54079;44.540;18.784;2022-12-20T01:31:21;76.10;;;38.78;;
55776;SDS011;54079;44.540;18.784;2022-12-20T01:33:48;91.82;;;45.60;;
55776;SDS011;54079;44.540;18.784;2022-12-20T01:36:19;93.55;;;47.40;;
55776;SDS011;54079;44.540;18.784;2022-12-20T01:38:50;109.13;;;51.80;;
55776;SDS011;54079;44.540;18.784;2022-12-20T01:41:20;90.60;;;43.03;;
55776;SDS011;54079;44.540;18.784;2022-12-20T01:43:54;86.50;;;42.65;;
55776;SDS011;54079;44.540;18.784;2022-12-20T01:46:21;84.70;;;43.53;;
55776;SDS011;54079;44.540;18.784;2022-12-20T01:48:55;101.13;;;45.15;;
55776;SDS011;54079;44.540;18.784;2022-12-20T01:51:25;106.75;;;50.58;;
55776;SDS011;54079;44.540;18.784;2022-12-20T01:53:55;97.50;;;45.33;;
55776;SDS011;54079;44.540;18.784;2022-12-20T01:56:42;93.95;;;45.72;;
55776;SDS011;54079;44.540;18.784;2022-12-20T01:59:13;93.13;;;43.15;;
55776;SDS011;54079;44.540;18.784;2022-12-20T02:01:40;94.78;;;46.95;;
55776;SDS011;54079;44.540;18.784;2022-12-20T02:04:07;84.63;;;41.08;;
55776;SDS011;54079;44.540;18.784;2022-12-20T02:06:34;90.45;;;44.33;;
55776;SDS011;54079;44.540;18.784;2022-12-20T02:09:00;102.25;;;49.53;;
55776;SDS011;54079;44.540;18.784;2022-12-20T02:14:16;94.45;;;45.88;;
55776;SDS011;54079;44.540;18.784;2022-12-20T02:17:06;98.40;;;44.28;;
55776;SDS011;54079;44.540;18.784;2022-12-20T02:30:52;89.53;;;44.22;;
55776;SDS011;54079;44.540;18.784;2022-12-20T02:33:20;93.20;;;44.00;;
55776;SDS011;54079;44.540;18.784;2022-12-20T02:35:48;84.82;;;44.17;;
55776;SDS011;54079;44.540;18.784;2022-12-20T02:38:25;111.18;;;53.33;;
55776;SDS011;54079;44.540;18.784;2022-12-20T02:40:57;94.57;;;45.20;;
55776;SDS011;54079;44.540;18.784;2022-12-20T02:43:29;96.38;;;43.08;;
55776;SDS011;54079;44.540;18.784;2022-12-20T02:46:15;88.20;;;44.55;;
55776;SDS011;54079;44.540;18.784;2022-12-20T02:48:43;91.97;;;41.97;;
55776;SDS011;54079;44.540;18.784;2022-12-20T02:51:12;90.00;;;47.05;;
55776;SDS011;54079;44.540;18.784;2022-12-20T02:53:40;91.95;;;42.10;;
55776;SDS011;54079;44.540;18.784;2022-12-20T02:56:30;105.63;;;47.20;;
55776;SDS011;54079;44.540;18.784;2022-12-20T02:59:22;93.65;;;47.17;;
55776;SDS011;54079;44.540;18.784;2022-12-20T03:01:52;91.65;;;42.33;;
55776;SDS011;54079;44.540;18.784;2022-12-20T03:04:24;88.03;;;44.85;;
55776;SDS011;54079;44.540;18.784;2022-12-20T03:07:06;99.78;;;50.42;;
55776;SDS011;54079;44.540;18.784;2022-12-20T03:09:35;88.30;;;43.78;;
55776;SDS011;54079;44.540;18.784;2022-12-20T03:12:03;89.82;;;45.80;;
55776;SDS011;54079;44.540;18.784;2022-12-20T03:14:29;91.07;;;44.28;;
55776;SDS011;54079;44.540;18.784;2022-12-20T03:16:55;94.53;;;45.00;;
55776;SDS011;54079;44.540;18.784;2022-12-20T03:19:21;93.45;;;46.92;;
55776;SDS011;54079;44.540;18.784;2022-12-20T03:21:47;98.88;;;47.53;;
55776;SDS011;54079;44.540;18.784;2022-12-20T03:24:13;89.22;;;43.33;;
55776;SDS011;54079;44.540;18.784;2022-12-20T03:26:39;100.80;;;45.55;;
55776;SDS011;54079;44.540;18.784;2022-12-20T03:29:05;96.38;;;49.20;;
55776;SDS011;54079;44.540;18.784;2022-12-20T03:31:31;104.28;;;49.50;;
55776;SDS011;54079;44.540;18.784;2022-12-20T03:33:57;90.40;;;46.95;;
55776;SDS011;54079;44.540;18.784;2022-12-20T03:36:23;98.07;;;49.10;;
55776;SDS011;54079;44.540;18.784;2022-12-20T03:38:49;90.80;;;45.20;;
55776;SDS011;54079;44.540;18.784;2022-12-20T03:41:16;104.68;;;49.17;;
55776;SDS011;54079;44.540;18.784;2022-12-20T03:43:43;104.15;;;48.03;;
55776;SDS011;54079;44.540;18.784;2022-12-20T03:46:09;103.78;;;46.28;;
55776;SDS011;54079;44.540;18.784;2022-12-20T03:48:34;96.85;;;46.63;;
55776;SDS011;54079;44.540;18.784;2022-12-20T03:51:00;104.72;;;47.85;;
55776;SDS011;54079;44.540;18.784;2022-12-20T03:53:27;86.53;;;42.90;;
55776;SDS011;54079;44.540;18.784;2022-12-20T03:55:52;84.68;;;42.55;;
55776;SDS011;54079;44.540;18.784;2022-12-20T03:58:19;87.20;;;42.20;;
55776;SDS011;54079;44.540;18.784;2022-12-20T04:00:45;81.28;;;38.35;;
55776;SDS011;54079;44.540;18.784;2022-12-20T04:03:11;74.20;;;37.40;;
55776;SDS011;54079;44.540;18.784;2022-12-20T04:05:37;71.07;;;35.22;;
55776;SDS011;54079;44.540;18.784;2022-12-20T04:08:03;82.10;;;37.25;;
55776;SDS011;54079;44.540;18.784;2022-12-20T04:10:29;78.38;;;37.55;;
55776;SDS011;54079;44.540;18.784;2022-12-20T04:12:55;80.72;;;39.63;;
55776;SDS011;54079;44.540;18.784;2022-12-20T04:15:21;81.13;;;40.67;;
55776;SDS011;54079;44.540;18.784;2022-12-20T04:17:47;87.25;;;41.65;;
55776;SDS011;54079;44.540;18.784;2022-12-20T04:20:13;92.10;;;40.97;;
55776;SDS011;54079;44.540;18.784;2022-12-20T04:22:47;85.07;;;39.77;;
55776;SDS011;54079;44.540;18.784;2022-12-20T04:25:15;87.40;;;40.53;;
55776;SDS011;54079;44.540;18.784;2022-12-20T04:27:43;88.72;;;41.65;;
55776;SDS011;54079;44.540;18.784;2022-12-20T04:30:09;81.95;;;38.13;;
55776;SDS011;54079;44.540;18.784;2022-12-20T04:32:36;83.22;;;39.15;;
55776;SDS011;54079;44.540;18.784;2022-12-20T04:35:02;88.22;;;42.33;;
55776;SDS011;54079;44.540;18.784;2022-12-20T04:37:29;80.95;;;39.00;;
55776;SDS011;54079;44.540;18.784;2022-12-20T04:39:55;86.15;;;41.55;;
55776;SDS011;54079;44.540;18.784;2022-12-20T04:42:22;88.82;;;42.20;;
55776;SDS011;54079;44.540;18.784;2022-12-20T04:44:49;87.60;;;39.70;;
55776;SDS011;54079;44.540;18.784;2022-12-20T04:47:15;68.07;;;34.42;;
55776;SDS011;54079;44.540;18.784;2022-12-20T04:49:41;81.20;;;39.45;;
55776;SDS011;54079;44.540;18.784;2022-12-20T04:52:06;79.07;;;38.38;;
55776;SDS011;54079;44.540;18.784;2022-12-20T04:54:51;84.15;;;39.63;;
55776;SDS011;54079;44.540;18.784;2022-12-20T04:57:17;80.63;;;38.80;;
55776;SDS011;54079;44.540;18.784;2022-12-20T04:59:43;77.88;;;38.60;;
55776;SDS011;54079;44.540;18.784;2022-12-20T05:02:09;79.43;;;39.10;;
55776;SDS011;54079;44.540;18.784;2022-12-20T05:04:35;83.18;;;38.28;;
55776;SDS011;54079;44.540;18.784;2022-12-20T05:07:00;90.82;;;41.88;;
55776;SDS011;54079;44.540;18.784;2022-12-20T05:09:26;75.20;;;38.58;;
55776;SDS011;54079;44.540;18.784;2022-12-20T05:11:52;79.72;;;37.88;;
55776;SDS011;54079;44.540;18.784;2022-12-20T05:14:18;82.20;;;38.47;;
55776;SDS011;54079;44.540;18.784;2022-12-20T05:16:44;82.88;;;38.92;;
55776;SDS011;54079;44.540;18.784;2022-12-20T05:19:10;79.50;;;38.38;;
55776;SDS011;54079;44.540;18.784;2022-12-20T05:21:36;75.25;;;37.40;;
55776;SDS011;54079;44.540;18.784;2022-12-20T05:24:20;79.85;;;38.28;;
55776;SDS011;54079;44.540;18.784;2022-12-20T05:27:04;90.45;;;43.08;;
55776;SDS011;54079;44.540;18.784;2022-12-20T05:29:30;87.32;;;41.22;;
55776;SDS011;54079;44.540;18.784;2022-12-20T05:31:56;80.00;;;37.15;;
55776;SDS011;54079;44.540;18.784;2022-12-20T05:34:22;75.30;;;35.22;;
55776;SDS011;54079;44.540;18.784;2022-12-20T05:36:47;82.63;;;39.72;;
55776;SDS011;54079;44.540;18.784;2022-12-20T05:39:13;86.30;;;40.38;;
55776;SDS011;54079;44.540;18.784;2022-12-20T05:41:39;87.22;;;38.30;;
55776;SDS011;54079;44.540;18.784;2022-12-20T05:44:05;89.50;;;39.80;;
55776;SDS011;54079;44.540;18.784;2022-12-20T05:46:32;85.68;;;39.53;;
55776;SDS011;54079;44.540;18.784;2022-12-20T05:48:57;80.22;;;36.85;;
55776;SDS011;54079;44.540;18.784;2022-12-20T05:51:23;74.90;;;33.88;;
55776;SDS011;54079;44.540;18.784;2022-12-20T05:53:50;85.50;;;38.25;;
55776;SDS011;54079;44.540;18.784;2022-12-20T05:56:15;84.13;;;40.20;;
55776;SDS011;54079;44.540;18.784;2022-12-20T05:58:41;80.75;;;37.78;;
55776;SDS011;54079;44.540;18.784;2022-12-20T06:01:08;80.28;;;38.60;;
55776;SDS011;54079;44.540;18.784;2022-12-20T06:03:34;87.80;;;39.55;;
55776;SDS011;54079;44.540;18.784;2022-12-20T06:06:01;90.68;;;37.90;;
55776;SDS011;54079;44.540;18.784;2022-12-20T06:08:27;88.93;;;39.55;;
55776;SDS011;54079;44.540;18.784;2022-12-20T06:10:53;93.47;;;37.50;;
55776;SDS011;54079;44.540;18.784;2022-12-20T06:13:19;83.75;;;36.88;;
55776;SDS011;54079;44.540;18.784;2022-12-20T06:15:45;82.03;;;37.85;;
55776;SDS011;54079;44.540;18.784;2022-12-20T06:18:11;77.85;;;37.17;;
55776;SDS011;54079;44.540;18.784;2022-12-20T06:20:38;87.03;;;39.28;;
55776;SDS011;54079;44.540;18.784;2022-12-20T06:23:04;72.85;;;34.65;;
55776;SDS011;54079;44.540;18.784;2022-12-20T06:25:30;81.68;;;39.03;;
55776;SDS011;54079;44.540;18.784;2022-12-20T06:27:56;69.03;;;35.30;;
55776;SDS011;54079;44.540;18.784;2022-12-20T06:30:22;91.60;;;33.80;;
55776;SDS011;54079;44.540;18.784;2022-12-20T06:32:48;95.10;;;36.25;;
55776;SDS011;54079;44.540;18.784;2022-12-20T06:35:14;78.10;;;35.17;;
55776;SDS011;54079;44.540;18.784;2022-12-20T06:37:40;81.35;;;35.78;;
55776;SDS011;54079;44.540;18.784;2022-12-20T06:40:07;84.20;;;35.13;;
55776;SDS011;54079;44.540;18.784;2022-12-20T06:42:34;74.60;;;33.75;;
55776;SDS011;54079;44.540;18.784;2022-12-20T06:45:00;82.88;;;36.35;;
55776;SDS011;54079;44.540;18.784;2022-12-20T06:47:26;77.85;;;36.67;;
55776;SDS011;54079;44.540;18.784;2022-12-20T06:49:52;84.00;;;36.13;;
55776;SDS011;54079;44.540;18.784;2022-12-20T06:52:18;81.75;;;36.83;;
55776;SDS011;54079;44.540;18.784;2022-12-20T06:54:44;74.85;;;35.20;;
55776;SDS011;54079;44.540;18.784;2022-12-20T06:57:10;98.10;;;38.13;;
55776;SDS011;54079;44.540;18.784;2022-12-20T06:59:36;75.72;;;35.28;;
55776;SDS011;54079;44.540;18.784;2022-12-20T07:02:01;86.70;;;35.92;;
55776;SDS011;54079;44.540;18.784;2022-12-20T07:04:27;76.63;;;32.83;;
55776;SDS011;54079;44.540;18.784;2022-12-20T07:06:53;101.10;;;35.35;;
55776;SDS011;54079;44.540;18.784;2022-12-20T07:09:19;72.18;;;32.30;;
55776;SDS011;54079;44.540;18.784;2022-12-20T07:11:45;64.18;;;31.02;;
55776;SDS011;54079;44.540;18.784;2022-12-20T07:14:11;69.22;;;33.22;;
55776;SDS011;54079;44.540;18.784;2022-12-20T07:16:37;70.72;;;33.97;;
55776;SDS011;54079;44.540;18.784;2022-12-20T07:19:05;68.82;;;31.55;;
55776;SDS011;54079;44.540;18.784;2022-12-20T07:21:31;77.57;;;32.90;;
55776;SDS011;54079;44.540;18.784;2022-12-20T07:23:57;69.43;;;30.98;;
55776;SDS011;54079;44.540;18.784;2022-12-20T07:26:23;76.57;;;33.70;;
55776;SDS011;54079;44.540;18.784;2022-12-20T07:28:48;69.43;;;32.33;;
55776;SDS011;54079;44.540;18.784;2022-12-20T07:31:14;75.05;;;34.13;;
55776;SDS011;54079;44.540;18.784;2022-12-20T07:33:40;75.68;;;33.65;;
55776;SDS011;54079;44.540;18.784;2022-12-20T07:36:07;74.65;;;33.35;;
55776;SDS011;54079;44.540;18.784;2022-12-20T07:38:36;64.80;;;29.92;;
55776;SDS011;54079;44.540;18.784;2022-12-20T07:41:12;62.83;;;30.95;;
55776;SDS011;54079;44.540;18.784;2022-12-20T07:43:40;67.53;;;32.88;;
55776;SDS011;54079;44.540;18.784;2022-12-20T07:46:09;70.10;;;33.65;;
55776;SDS011;54079;44.540;18.784;2022-12-20T07:48:36;86.85;;;37.55;;
55776;SDS011;54079;44.540;18.784;2022-12-20T07:51:07;88.05;;;35.00;;
55776;SDS011;54079;44.540;18.784;2022-12-20T07:53:37;89.85;;;34.50;;
55776;SDS011;54079;44.540;18.784;2022-12-20T07:56:08;81.90;;;33.60;;
55776;SDS011;54079;44.540;18.784;2022-12-20T07:58:36;64.70;;;30.85;;
55776;SDS011;54079;44.540;18.784;2022-12-20T08:01:04;83.30;;;35.53;;
55776;SDS011;54079;44.540;18.784;2022-12-20T08:03:32;83.72;;;36.08;;
55776;SDS011;54079;44.540;18.784;2022-12-20T08:06:11;72.57;;;35.78;;
55776;SDS011;54079;44.540;18.784;2022-12-20T08:08:39;63.25;;;31.42;;
55776;SDS011;54079;44.540;18.784;2022-12-20T08:11:10;68.15;;;32.20;;
55776;SDS011;54079;44.540;18.784;2022-12-20T08:13:36;76.50;;;33.45;;
55776;SDS011;54079;44.540;18.784;2022-12-20T08:16:03;70.00;;;31.45;;
55776;SDS011;54079;44.540;18.784;2022-12-20T08:18:30;61.85;;;30.60;;
55776;SDS011;54079;44.540;18.784;2022-12-20T08:20:56;68.45;;;32.10;;
55776;SDS011;54079;44.540;18.784;2022-12-20T08:23:22;62.13;;;28.77;;
55776;SDS011;54079;44.540;18.784;2022-12-20T08:25:47;62.60;;;30.92;;
55776;SDS011;54079;44.540;18.784;2022-12-20T08:28:14;82.65;;;31.42;;
55776;SDS011;54079;44.540;18.784;2022-12-20T08:30:40;61.38;;;29.80;;
55776;SDS011;54079;44.540;18.784;2022-12-20T08:33:06;58.17;;;29.50;;
55776;SDS011;54079;44.540;18.784;2022-12-20T08:35:32;66.82;;;30.42;;
55776;SDS011;54079;44.540;18.784;2022-12-20T08:37:58;57.13;;;27.50;;
55776;SDS011;54079;44.540;18.784;2022-12-20T08:40:24;77.57;;;28.77;;
55776;SDS011;54079;44.540;18.784;2022-12-20T08:42:49;57.05;;;28.15;;
55776;SDS011;54079;44.540;18.784;2022-12-20T08:45:15;65.80;;;27.60;;
55776;SDS011;54079;44.540;18.784;2022-12-20T08:47:43;48.72;;;27.38;;
55776;SDS011;54079;44.540;18.784;2022-12-20T08:50:09;53.72;;;28.25;;
55776;SDS011;54079;44.540;18.784;2022-12-20T08:52:35;66.50;;;29.77;;
55776;SDS011;54079;44.540;18.784;2022-12-20T08:55:01;57.58;;;27.85;;
55776;SDS011;54079;44.540;18.784;2022-12-20T08:57:27;54.15;;;28.15;;
55776;SDS011;54079;44.540;18.784;2022-12-20T08:59:53;56.80;;;28.65;;
55776;SDS011;54079;44.540;18.784;2022-12-20T09:02:19;45.63;;;25.58;;
55776;SDS011;54079;44.540;18.784;2022-12-20T09:04:45;46.40;;;25.40;;
55776;SDS011;54079;44.540;18.784;2022-12-20T09:07:11;55.30;;;27.65;;
55776;SDS011;54079;44.540;18.784;2022-12-20T09:09:37;50.83;;;28.42;;
55776;SDS011;54079;44.540;18.784;2022-12-20T09:12:03;58.00;;;27.75;;
55776;SDS011;54079;44.540;18.784;2022-12-20T09:14:29;53.25;;;28.10;;
55776;SDS011;54079;44.540;18.784;2022-12-20T09:16:55;53.17;;;27.77;;
55776;SDS011;54079;44.540;18.784;2022-12-20T09:19:21;51.95;;;26.65;;
55776;SDS011;54079;44.540;18.784;2022-12-20T09:21:47;58.65;;;31.15;;
55776;SDS011;54079;44.540;18.784;2022-12-20T09:24:13;52.92;;;28.73;;
55776;SDS011;54079;44.540;18.784;2022-12-20T09:26:39;56.45;;;29.40;;
55776;SDS011;54079;44.540;18.784;2022-12-20T09:29:05;45.30;;;25.77;;
55776;SDS011;54079;44.540;18.784;2022-12-20T09:31:31;51.50;;;29.35;;
55776;SDS011;54079;44.540;18.784;2022-12-20T09:33:57;61.05;;;31.00;;
55776;SDS011;54079;44.540;18.784;2022-12-20T09:36:25;51.22;;;26.48;;
55776;SDS011;54079;44.540;18.784;2022-12-20T09:38:53;57.92;;;30.13;;
55776;SDS011;54079;44.540;18.784;2022-12-20T09:43:54;60.03;;;32.58;;
55776;SDS011;54079;44.540;18.784;2022-12-20T09:46:21;61.28;;;32.28;;
55776;SDS011;54079;44.540;18.784;2022-12-20T09:48:49;54.40;;;29.75;;
55776;SDS011;54079;44.540;18.784;2022-12-20T09:51:40;56.55;;;29.77;;
55776;SDS011;54079;44.540;18.784;2022-12-20T09:54:21;51.63;;;29.65;;
55776;SDS011;54079;44.540;18.784;2022-12-20T09:59:41;55.42;;;29.90;;
55776;SDS011;54079;44.540;18.784;2022-12-20T10:02:12;51.25;;;27.85;;
55776;SDS011;54079;44.540;18.784;2022-12-20T10:04:46;55.83;;;30.35;;
55776;SDS011;54079;44.540;18.784;2022-12-20T10:13:00;55.63;;;30.67;;
55776;SDS011;54079;44.540;18.784;2022-12-20T10:15:37;56.10;;;31.90;;
55776;SDS011;54079;44.540;18.784;2022-12-20T10:18:27;53.92;;;29.38;;
55776;SDS011;54079;44.540;18.784;2022-12-20T10:21:32;63.25;;;32.60;;
55776;SDS011;54079;44.540;18.784;2022-12-20T10:24:18;55.67;;;30.10;;
55776;SDS011;54079;44.540;18.784;2022-12-20T10:26:49;50.50;;;30.48;;
55776;SDS011;54079;44.540;18.784;2022-12-20T10:29:16;52.83;;;28.27;;
55776;SDS011;54079;44.540;18.784;2022-12-20T10:31:43;49.90;;;29.45;;
55776;SDS011;54079;44.540;18.784;2022-12-20T10:34:09;53.28;;;31.13;;
55776;SDS011;54079;44.540;18.784;2022-12-20T10:36:35;48.88;;;27.48;;
55776;SDS011;54079;44.540;18.784;2022-12-20T10:39:08;47.88;;;27.35;;
55776;SDS011;54079;44.540;18.784;2022-12-20T10:46:47;53.72;;;29.88;;
55776;SDS011;54079;44.540;18.784;2022-12-20T10:49:42;60.05;;;35.17;;
55776;SDS011;54079;44.540;18.784;2022-12-20T10:54:37;56.03;;;32.78;;
55776;SDS011;54079;44.540;18.784;2022-12-20T10:57:24;54.25;;;31.25;;
55776;SDS011;54079;44.540;18.784;2022-12-20T11:00:03;58.03;;;33.92;;
55776;SDS011;54079;44.540;18.784;2022-12-20T11:02:32;61.58;;;34.35;;
55776;SDS011;54079;44.540;18.784;2022-12-20T11:07:34;60.60;;;37.05;;
55776;SDS011;54079;44.540;18.784;2022-12-20T11:10:02;61.60;;;34.25;;
55776;SDS011;54079;44.540;18.784;2022-12-20T11:12:51;59.35;;;32.92;;
55776;SDS011;54079;44.540;18.784;2022-12-20T11:15:21;62.25;;;35.78;;
55776;SDS011;54079;44.540;18.784;2022-12-20T11:17:50;61.05;;;35.38;;
55776;SDS011;54079;44.540;18.784;2022-12-20T11:53:34;66.97;;;38.13;;
55776;SDS011;54079;44.540;18.784;2022-12-20T11:56:15;69.90;;;41.47;;
55776;SDS011;54079;44.540;18.784;2022-12-20T11:58:55;67.60;;;41.10;;
55776;SDS011;54079;44.540;18.784;2022-12-20T12:01:28;66.95;;;41.60;;
55776;SDS011;54079;44.540;18.784;2022-12-20T12:04:04;65.93;;;40.70;;
55776;SDS011;54079;44.540;18.784;2022-12-20T12:06:42;66.05;;;39.38;;
55776;SDS011;54079;44.540;18.784;2022-12-20T12:09:22;65.32;;;38.33;;
55776;SDS011;54079;44.540;18.784;2022-12-20T12:12:04;63.42;;;36.55;;
55776;SDS011;54079;44.540;18.784;2022-12-20T12:17:30;53.70;;;33.80;;
55776;SDS011;54079;44.540;18.784;2022-12-20T12:23:16;58.88;;;34.03;;
55776;SDS011;54079;44.540;18.784;2022-12-20T12:25:50;62.60;;;37.20;;
55776;SDS011;54079;44.540;18.784;2022-12-20T12:28:17;68.93;;;38.65;;
55776;SDS011;54079;44.540;18.784;2022-12-20T12:30:46;70.13;;;44.65;;
55776;SDS011;54079;44.540;18.784;2022-12-20T12:33:19;69.65;;;40.42;;
55776;SDS011;54079;44.540;18.784;2022-12-20T12:47:03;75.53;;;44.78;;
55776;SDS011;54079;44.540;18.784;2022-12-20T12:49:39;72.72;;;44.33;;
55776;SDS011;54079;44.540;18.784;2022-12-20T12:52:07;70.07;;;41.65;;
55776;SDS011;54079;44.540;18.784;2022-12-20T12:54:59;72.68;;;40.60;;
55776;SDS011;54079;44.540;18.784;2022-12-20T12:57:25;69.10;;;40.75;;
55776;SDS011;54079;44.540;18.784;2022-12-20T12:59:51;69.85;;;42.38;;
55776;SDS011;54079;44.540;18.784;2022-12-20T13:02:21;66.88;;;41.15;;
55776;SDS011;54079;44.540;18.784;2022-12-20T13:07:24;67.65;;;41.13;;
55776;SDS011;54079;44.540;18.784;2022-12-20T13:10:57;68.93;;;41.75;;
55776;SDS011;54079;44.540;18.784;2022-12-20T13:20:20;74.00;;;45.40;;
55776;SDS011;54079;44.540;18.784;2022-12-20T13:25:49;80.00;;;46.63;;
55776;SDS011;54079;44.540;18.784;2022-12-20T13:30:47;78.47;;;48.38;;
55776;SDS011;54079;44.540;18.784;2022-12-20T13:33:38;87.68;;;49.78;;
55776;SDS011;54079;44.540;18.784;2022-12-20T13:44:07;77.75;;;48.17;;
55776;SDS011;54079;44.540;18.784;2022-12-20T13:46:45;82.68;;;51.13;;
55776;SDS011;54079;44.540;18.784;2022-12-20T13:49:14;86.43;;;54.45;;
55776;SDS011;54079;44.540;18.784;2022-12-20T13:57:07;96.95;;;57.75;;
55776;SDS011;54079;44.540;18.784;2022-12-20T13:59:43;90.82;;;55.90;;
55776;SDS011;54079;44.540;18.784;2022-12-20T14:02:21;90.75;;;54.70;;
55776;SDS011;54079;44.540;18.784;2022-12-20T14:04:52;88.82;;;57.15;;
55776;SDS011;54079;44.540;18.784;2022-12-20T14:07:26;88.65;;;54.65;;
55776;SDS011;54079;44.540;18.784;2022-12-20T14:09:55;84.25;;;53.92;;
55776;SDS011;54079;44.540;18.784;2022-12-20T14:12:26;88.50;;;54.17;;
55776;SDS011;54079;44.540;18.784;2022-12-20T14:14:53;87.40;;;54.80;;
55776;SDS011;54079;44.540;18.784;2022-12-20T14:20:03;91.68;;;56.10;;
55776;SDS011;54079;44.540;18.784;2022-12-20T14:23:11;90.10;;;55.85;;
55776;SDS011;54079;44.540;18.784;2022-12-20T14:28:35;87.18;;;53.03;;
55776;SDS011;54079;44.540;18.784;2022-12-20T14:31:28;91.05;;;55.42;;
55776;SDS011;54079;44.540;18.784;2022-12-20T14:36:36;102.93;;;59.17;;
55776;SDS011;54079;44.540;18.784;2022-12-20T14:39:37;103.00;;;61.28;;
55776;SDS011;54079;44.540;18.784;2022-12-20T14:42:02;97.75;;;60.55;;
55776;SDS011;54079;44.540;18.784;2022-12-20T14:44:38;97.22;;;56.05;;
55776;SDS011;54079;44.540;18.784;2022-12-20T14:47:13;91.53;;;54.45;;
55776;SDS011;54079;44.540;18.784;2022-12-20T14:49:49;106.68;;;63.03;;
55776;SDS011;54079;44.540;18.784;2022-12-20T14:52:20;103.95;;;61.80;;
55776;SDS011;54079;44.540;18.784;2022-12-20T14:57:24;105.80;;;60.45;;
55776;SDS011;54079;44.540;18.784;2022-12-20T15:00:19;114.78;;;70.63;;
55776;SDS011;54079;44.540;18.784;2022-12-20T15:05:44;108.60;;;61.70;;
55776;SDS011;54079;44.540;18.784;2022-12-20T15:10:55;122.43;;;72.22;;
55776;SDS011;54079;44.540;18.784;2022-12-20T15:13:26;117.05;;;67.32;;
55776;SDS011;54079;44.540;18.784;2022-12-20T15:15:54;140.75;;;78.88;;
55776;SDS011;54079;44.540;18.784;2022-12-20T15:18:23;127.75;;;72.90;;
55776;SDS011;54079;44.540;18.784;2022-12-20T15:20:59;144.65;;;80.97;;
55776;SDS011;54079;44.540;18.784;2022-12-20T15:23:31;133.40;;;78.50;;
55776;SDS011;54079;44.540;18.784;2022-12-20T15:25:58;144.23;;;81.70;;
55776;SDS011;54079;44.540;18.784;2022-12-20T15:28:24;143.55;;;81.57;;
55776;SDS011;54079;44.540;18.784;2022-12-20T15:30:51;146.35;;;79.93;;
55776;SDS011;54079;44.540;18.784;2022-12-20T15:33:22;142.50;;;83.88;;
55776;SDS011;54079;44.540;18.784;2022-12-20T15:35:50;144.48;;;82.68;;
55776;SDS011;54079;44.540;18.784;2022-12-20T15:38:17;143.55;;;83.43;;
55776;SDS011;54079;44.540;18.784;2022-12-20T15:40:49;141.05;;;79.78;;
55776;SDS011;54079;44.540;18.784;2022-12-20T15:43:18;133.90;;;76.38;;
55776;SDS011;54079;44.540;18.784;2022-12-20T15:45:47;135.82;;;78.78;;
55776;SDS011;54079;44.540;18.784;2022-12-20T15:48:18;126.70;;;73.40;;
55776;SDS011;54079;44.540;18.784;2022-12-20T15:50:50;124.38;;;71.43;;
55776;SDS011;54079;44.540;18.784;2022-12-20T15:53:20;132.90;;;76.10;;
55776;SDS011;54079;44.540;18.784;2022-12-20T15:55:52;151.25;;;79.93;;
55776;SDS011;54079;44.540;18.784;2022-12-20T15:58:20;140.88;;;78.80;;
55776;SDS011;54079;44.540;18.784;2022-12-20T16:00:47;149.82;;;84.68;;
55776;SDS011;54079;44.540;18.784;2022-12-20T16:03:15;136.27;;;80.15;;
55776;SDS011;54079;44.540;18.784;2022-12-20T16:05:43;132.85;;;77.97;;
55776;SDS011;54079;44.540;18.784;2022-12-20T16:08:09;135.45;;;74.95;;
55776;SDS011;54079;44.540;18.784;2022-12-20T16:10:35;125.57;;;72.32;;
55776;SDS011;54079;44.540;18.784;2022-12-20T16:13:01;132.80;;;76.18;;
55776;SDS011;54079;44.540;18.784;2022-12-20T16:15:28;135.38;;;79.15;;
55776;SDS011;54079;44.540;18.784;2022-12-20T16:17:54;127.30;;;74.07;;
55776;SDS011;54079;44.540;18.784;2022-12-20T16:20:20;121.88;;;72.40;;
55776;SDS011;54079;44.540;18.784;2022-12-20T16:22:46;150.85;;;83.63;;
55776;SDS011;54079;44.540;18.784;2022-12-20T16:25:30;127.07;;;74.22;;
55776;SDS011;54079;44.540;18.784;2022-12-20T16:27:58;139.90;;;79.78;;
55776;SDS011;54079;44.540;18.784;2022-12-20T16:30:24;142.30;;;79.15;;